All
Deniliquin Airport (Deniliquin, New South Wales) DNQ Weather
|
Deniliquin, New South Wales (DNQ / YDLQ)
Clear skies
Light winds |
|
51 °F |
There is no TAF data available at DNQ or any nearby airports.
Recent DNQ METAR history
| Date | Time (AEST) | Flight Rules | Wind Dir. | Speed | Type | Height AGL (ft) | Visibility | Temp (°C) | Temp (°F) | Dew Point (°C) | Dew Point (°F) | Rel. Humid. | Pressure | Density Altitude | Remarks |
|---|---|---|---|---|---|---|---|---|---|---|---|---|---|---|---|
| 05-May | 01:00AM | n/a | 300° | 9 kt | Missing | 11° | 51° | 10° | 50° | 94% | 1017 mb | -276 ft | |||
| 05-May | 12:00AM | n/a | 310° | 8 kt | Missing | 12° | 53° | 10° | 50° | 88% | 1017 mb | -156 ft | |||
| 04-May | 11:00PM | n/a | 300° | 9 kt | Missing | 12° | 53° | 10° | 50° | 88% | 1017 mb | -156 ft | |||
| 04-May | 10:00PM | n/a | 300° | 8 kt | Missing | 12° | 53° | 9° | 48° | 82% | 1017 mb | -156 ft | |||
| 04-May | 09:00PM | n/a | 310° | 8 kt | Missing | 13° | 55° | 9° | 48° | 77% | 1016 mb | -6 ft | |||
| 04-May | 08:00PM | n/a | 300° | 5 kt | Missing | 12° | 53° | 10° | 50° | 88% | 1016 mb | -126 ft | |||
| 04-May | 07:00PM | n/a | 250° | 15 kt | Missing | 14° | 57° | 9° | 48° | 72% | 1015 mb | 143 ft | |||
| 04-May | 06:00PM | n/a | 320° | 9 kt | Missing | 17° | 62° | 8° | 46° | 55% | 1014 mb | 533 ft | |||
| 04-May | 05:00PM | n/a | 330° | 12 kt | Missing | 18° | 64° | 7° | 44° | 49% | 1013 mb | 682 ft | |||
| 04-May | 04:00PM | n/a | 330° | 15 kt | Missing | 19° | 66° | 8° | 46° | 49% | 1013 mb | 802 ft | |||
| 04-May | 03:00PM | n/a | 330° | 13 kt | Missing | 19° | 66° | 6° | 42° | 43% | 1012 mb | 832 ft | |||
| 04-May | 02:00PM | n/a | 330° | 15 kt | Missing | 19° | 66° | 8° | 46° | 49% | 1013 mb | 802 ft | |||
| 04-May | 01:00PM | n/a | 320° | 14 kt | Missing | 18° | 64° | 8° | 46° | 52% | 1013 mb | 682 ft | |||
| 04-May | 12:00PM | n/a | 340° | 11 kt | Missing | 18° | 64° | 10° | 50° | 59% | 1014 mb | 653 ft | |||
| 04-May | 11:00AM | n/a | 350° | 11 kt | Missing | 17° | 62° | 9° | 48° | 59% | 1014 mb | 533 ft | |||
| 04-May | 10:00AM | n/a | 350° | 7 kt | Missing | 15° | 59° | 9° | 48° | 67% | 1015 mb | 263 ft | |||
| 04-May | 09:00AM | n/a | 340° | 9 kt | Missing | 12° | 53° | 9° | 48° | 82% | 1015 mb | -97 ft | |||
| 04-May | 08:00AM | n/a | 350° | 8 kt | Missing | 11° | 51° | 9° | 48° | 87% | 1014 mb | -187 ft | |||
| 04-May | 07:00AM | n/a | 360° | 7 kt | Missing | 10° | 50° | 8° | 46° | 87% | 1014 mb | -307 ft | |||
| 04-May | 06:00AM | n/a | 360° | 7 kt | Missing | 11° | 51° | 9° | 48° | 87% | 1013 mb | -158 ft | |||
| 04-May | 05:00AM | n/a | 350° | 7 kt | Missing | 10° | 50° | 9° | 48° | 93% | 1013 mb | -278 ft | |||
| 04-May | 04:00AM | n/a | 350° | 7 kt | Missing | 11° | 51° | 10° | 50° | 94% | 1013 mb | -158 ft | |||
| 04-May | 03:00AM | n/a | 350° | 7 kt | Missing | 12° | 53° | 11° | 51° | 94% | 1014 mb | -67 ft | |||
| 04-May | 02:00AM | n/a | 360° | 6 kt | Missing | 12° | 53° | 11° | 51° | 94% | 1014 mb | -67 ft |
Login
| Your browser is unsupported. upgrade your browser |
